Time;durP1;ratioP1;P1;durP2;ratioP2;P2;SDS_P1;SDS_P2;PMS_P1;PMS_P2;Temp;Humidity;BMP_temperature;BMP_pressure;BME280_temperature;BME280_humidity;BME280_pressure;Samples;Min_cycle;Max_cycle;Signal;HPM_P1;HPM_P2
2023/06/30 00:03:11;;;;;;;17.13;5.32;;;;;;;;;;10504755;28;20033;-61
2023/06/30 00:08:11;;;;;;;7.38;5.25;;;;;;;;;;10485016;28;20036;-62
2023/06/30 00:13:12;;;;;;;7.88;4.70;;;;;;;;;;10486974;28;20468;-61
2023/06/30 00:18:12;;;;;;;9.10;5.35;;;;;;;;;;10484876;28;20036;-60
2023/06/30 00:23:13;;;;;;;11.13;4.65;;;;;;;;;;10489427;28;20029;-60
2023/06/30 00:28:14;;;;;;;9.82;4.68;;;;;;;;;;10499133;28;20035;-61
2023/06/30 00:33:14;;;;;;;6.75;4.28;;;;;;;;;;10490669;28;20098;-60
2023/06/30 00:38:15;;;;;;;11.85;4.60;;;;;;;;;;10488313;28;20032;-60
2023/06/30 00:43:16;;;;;;;9.02;4.10;;;;;;;;;;10463859;28;20093;-59
2023/06/30 00:48:17;;;;;;;9.82;4.38;;;;;;;;;;10492053;28;20032;-60
2023/06/30 00:53:18;;;;;;;9.85;4.55;;;;;;;;;;10482537;28;20025;-59
2023/06/30 00:58:19;;;;;;;7.97;4.32;;;;;;;;;;10477315;28;20437;-60
2023/06/30 01:03:33;;;;;;;8.73;4.43;;;;;;;;;;10492259;28;20074;-59
2023/06/30 01:09:00;;;;;;;13.45;4.90;;;;;;;;;;10489205;28;20207;-60
2023/06/30 01:14:03;;;;;;;9.27;4.57;;;;;;;;;;10490149;28;20025;-60
2023/06/30 01:19:10;;;;;;;6.93;4.57;;;;;;;;;;10486805;28;20097;-60
2023/06/30 01:24:15;;;;;;;9.37;5.73;;;;;;;;;;10483426;28;20498;-60
2023/06/30 01:29:16;;;;;;;10.32;5.28;;;;;;;;;;10496546;28;20100;-60
2023/06/30 01:34:16;;;;;;;11.52;6.10;;;;;;;;;;10492980;28;20087;-60
2023/06/30 01:39:17;;;;;;;15.77;6.03;;;;;;;;;;10488305;28;20112;-60
2023/06/30 01:44:18;;;;;;;12.32;5.50;;;;;;;;;;10486130;28;20468;-59
2023/06/30 01:49:19;;;;;;;5.45;4.70;;;;;;;;;;10487732;28;20025;-59
2023/06/30 01:54:20;;;;;;;8.98;4.90;;;;;;;;;;10484530;28;20035;-60
2023/06/30 01:59:20;;;;;;;14.15;4.90;;;;;;;;;;10488605;28;20036;-59
2023/06/30 02:04:21;;;;;;;9.57;4.18;;;;;;;;;;10488886;28;20036;-59
2023/06/30 02:09:21;;;;;;;6.55;4.43;;;;;;;;;;10482245;28;20078;-59
2023/06/30 02:14:22;;;;;;;9.30;4.55;;;;;;;;;;10486624;28;20029;-59
2023/06/30 02:19:23;;;;;;;12.13;4.15;;;;;;;;;;10478982;28;20185;-60
2023/06/30 02:24:24;;;;;;;9.63;4.43;;;;;;;;;;10484938;28;20059;-60
2023/06/30 02:29:24;;;;;;;9.20;4.45;;;;;;;;;;10487769;28;20028;-60
2023/06/30 02:34:25;;;;;;;10.18;4.53;;;;;;;;;;10475803;28;20041;-59
2023/06/30 02:39:26;;;;;;;9.65;4.00;;;;;;;;;;10496050;28;20035;-61
2023/06/30 02:44:26;;;;;;;5.65;3.30;;;;;;;;;;10497835;28;20468;-61
2023/06/30 02:49:28;;;;;;;10.40;3.63;;;;;;;;;;10496518;28;20135;-60
2023/06/30 02:54:29;;;;;;;7.35;3.78;;;;;;;;;;10473985;28;20070;-59
2023/06/30 02:59:29;;;;;;;7.75;4.03;;;;;;;;;;10476911;28;20052;-60
2023/06/30 03:04:30;;;;;;;7.82;3.92;;;;;;;;;;10490219;28;20082;-60
2023/06/30 03:09:31;;;;;;;8.73;3.78;;;;;;;;;;10496422;28;20107;-60
2023/06/30 03:14:31;;;;;;;8.80;3.30;;;;;;;;;;10492103;28;20029;-60
2023/06/30 03:19:32;;;;;;;5.43;3.35;;;;;;;;;;10494351;28;20412;-60
2023/06/30 03:24:32;;;;;;;5.65;3.20;;;;;;;;;;10490993;28;20028;-60
2023/06/30 03:29:33;;;;;;;6.72;3.63;;;;;;;;;;10470444;28;20036;-59
2023/06/30 03:34:33;;;;;;;6.00;3.13;;;;;;;;;;10491945;28;20256;-59
2023/06/30 03:39:34;;;;;;;5.57;3.83;;;;;;;;;;10484867;28;20045;-58
2023/06/30 03:44:35;;;;;;;7.00;3.58;;;;;;;;;;10494614;28;20027;-59
2023/06/30 03:49:35;;;;;;;7.05;3.45;;;;;;;;;;10493952;28;20037;-59
2023/06/30 03:54:36;;;;;;;5.93;3.70;;;;;;;;;;10494059;28;20035;-59
2023/06/30 03:59:36;;;;;;;3.47;3.10;;;;;;;;;;10486455;28;20090;-59
2023/06/30 04:04:37;;;;;;;7.55;3.63;;;;;;;;;;10489204;28;20486;-60
2023/06/30 04:09:37;;;;;;;5.15;3.30;;;;;;;;;;10490315;28;20033;-60
2023/06/30 04:14:38;;;;;;;5.90;3.30;;;;;;;;;;10492063;28;20098;-61
2023/06/30 04:19:39;;;;;;;12.90;3.05;;;;;;;;;;10488887;28;20036;-60
2023/06/30 04:24:40;;;;;;;7.90;3.50;;;;;;;;;;10487479;28;20107;-59
2023/06/30 04:29:40;;;;;;;7.13;3.15;;;;;;;;;;10490798;28;20044;-61
2023/06/30 04:34:41;;;;;;;7.03;2.65;;;;;;;;;;10488809;28;20067;-59
2023/06/30 04:39:46;;;;;;;7.07;3.10;;;;;;;;;;10486276;28;20031;-60
2023/06/30 04:44:46;;;;;;;10.73;3.35;;;;;;;;;;10489536;28;20028;-58
2023/06/30 04:49:47;;;;;;;6.68;3.28;;;;;;;;;;10479463;28;20469;-60
2023/06/30 04:54:48;;;;;;;5.20;2.67;;;;;;;;;;10486250;28;20396;-60
2023/06/30 05:00:04;;;;;;;8.00;3.30;;;;;;;;;;10477003;28;20032;-58
2023/06/30 05:05:05;;;;;;;3.85;2.72;;;;;;;;;;10492224;28;20055;-58
2023/06/30 05:10:06;;;;;;;9.25;3.25;;;;;;;;;;10485523;28;20029;-59
2023/06/30 05:15:07;;;;;;;10.93;2.80;;;;;;;;;;10488628;28;20021;-59
2023/06/30 05:20:09;;;;;;;12.35;3.10;;;;;;;;;;10476204;28;20032;-60
2023/06/30 05:25:09;;;;;;;11.77;3.67;;;;;;;;;;10487014;28;20048;-60
2023/06/30 05:30:11;;;;;;;3.88;2.85;;;;;;;;;;10479532;28;20024;-60
2023/06/30 05:35:11;;;;;;;8.90;3.00;;;;;;;;;;10482747;28;20045;-60
2023/06/30 05:40:12;;;;;;;12.18;2.65;;;;;;;;;;10487934;28;20103;-58
2023/06/30 05:45:13;;;;;;;8.15;2.88;;;;;;;;;;10466807;28;20086;-59
2023/06/30 05:50:13;;;;;;;5.72;3.35;;;;;;;;;;10479715;28;20036;-60
2023/06/30 05:55:14;;;;;;;6.03;2.50;;;;;;;;;;10488630;28;20029;-59
2023/06/30 06:00:16;;;;;;;4.90;2.83;;;;;;;;;;10477406;28;20033;-63
2023/06/30 06:05:17;;;;;;;11.27;3.10;;;;;;;;;;10480699;28;20443;-63
2023/06/30 06:10:17;;;;;;;11.50;3.55;;;;;;;;;;10485762;28;20025;-62
2023/06/30 06:15:18;;;;;;;14.60;3.35;;;;;;;;;;10489276;28;20025;-62
2023/06/30 06:20:19;;;;;;;14.68;3.42;;;;;;;;;;10488425;28;20040;-63
2023/06/30 06:25:19;;;;;;;15.07;3.33;;;;;;;;;;10477447;28;20036;-61
2023/06/30 06:30:20;;;;;;;7.53;3.25;;;;;;;;;;10487501;28;20198;-61
2023/06/30 06:35:20;;;;;;;17.67;3.22;;;;;;;;;;10485870;28;20059;-62
2023/06/30 06:40:21;;;;;;;10.18;3.03;;;;;;;;;;10481155;28;20542;-63
2023/06/30 06:45:25;;;;;;;11.50;2.90;;;;;;;;;;10488995;28;20405;-62
2023/06/30 06:50:25;;;;;;;9.65;2.72;;;;;;;;;;10475678;28;20059;-63
2023/06/30 06:55:26;;;;;;;6.03;2.83;;;;;;;;;;10475667;28;20024;-61
2023/06/30 07:00:27;;;;;;;7.88;2.90;;;;;;;;;;10488880;28;20043;-62
2023/06/30 07:05:28;;;;;;;8.27;2.80;;;;;;;;;;10488899;28;20024;-62
2023/06/30 07:10:29;;;;;;;10.43;3.00;;;;;;;;;;10475618;28;20051;-59
2023/06/30 07:15:30;;;;;;;10.70;3.38;;;;;;;;;;10462555;28;20017;-59
2023/06/30 07:20:31;;;;;;;7.68;2.83;;;;;;;;;;10463473;28;20037;-63
2023/06/30 07:25:32;;;;;;;5.75;3.15;;;;;;;;;;10494844;28;20037;-59
2023/06/30 07:30:33;;;;;;;5.18;3.22;;;;;;;;;;10484116;28;20029;-59
2023/06/30 07:35:34;;;;;;;6.63;2.85;;;;;;;;;;10496584;28;20044;-59
2023/06/30 07:40:35;;;;;;;4.22;2.63;;;;;;;;;;10482056;28;20032;-59
2023/06/30 07:45:35;;;;;;;6.28;3.10;;;;;;;;;;10482847;28;20095;-59
2023/06/30 07:50:36;;;;;;;4.78;2.88;;;;;;;;;;10494593;28;20020;-62
2023/06/30 07:55:36;;;;;;;5.38;2.80;;;;;;;;;;10495506;28;20021;-61
2023/06/30 08:00:37;;;;;;;5.45;3.03;;;;;;;;;;10493279;28;20029;-61
2023/06/30 08:05:37;;;;;;;7.28;2.75;;;;;;;;;;10493771;28;20043;-62
2023/06/30 08:10:38;;;;;;;6.72;2.47;;;;;;;;;;10495034;28;20040;-61
2023/06/30 08:15:39;;;;;;;9.05;3.05;;;;;;;;;;10492627;28;20032;-59
2023/06/30 08:20:39;;;;;;;4.13;2.58;;;;;;;;;;10494146;28;20090;-61
2023/06/30 08:25:40;;;;;;;4.80;2.63;;;;;;;;;;10481113;28;20025;-63
2023/06/30 08:30:41;;;;;;;3.70;2.40;;;;;;;;;;10495857;28;20502;-63
2023/06/30 08:35:41;;;;;;;6.10;2.88;;;;;;;;;;10478630;28;20098;-63
2023/06/30 08:40:42;;;;;;;6.05;2.95;;;;;;;;;;10491395;28;20476;-63
2023/06/30 08:45:47;;;;;;;8.60;2.97;;;;;;;;;;10489770;28;20027;-60
2023/06/30 08:50:49;;;;;;;5.57;2.80;;;;;;;;;;10488619;28;20099;-63
2023/06/30 08:55:50;;;;;;;7.13;2.95;;;;;;;;;;10490562;28;20023;-62
2023/06/30 09:00:51;;;;;;;5.40;2.95;;;;;;;;;;10489453;28;20578;-63
2023/06/30 09:05:55;;;;;;;7.20;3.10;;;;;;;;;;10489113;28;20112;-59
2023/06/30 09:10:56;;;;;;;3.67;2.70;;;;;;;;;;10488831;28;20024;-62
2023/06/30 09:15:58;;;;;;;7.47;2.70;;;;;;;;;;10489476;28;20016;-61
2023/06/30 09:20:59;;;;;;;5.47;2.70;;;;;;;;;;10488049;28;20029;-61
2023/06/30 09:26:00;;;;;;;6.97;2.75;;;;;;;;;;10484250;28;20036;-62
2023/06/30 09:31:02;;;;;;;6.15;2.80;;;;;;;;;;10485527;28;20052;-59
2023/06/30 09:36:03;;;;;;;7.25;3.13;;;;;;;;;;10491537;28;20051;-59
2023/06/30 09:41:07;;;;;;;8.07;3.25;;;;;;;;;;10489650;28;20082;-61
2023/06/30 09:46:08;;;;;;;8.13;3.38;;;;;;;;;;10489165;28;20024;-60
2023/06/30 09:51:09;;;;;;;4.40;2.83;;;;;;;;;;10489135;28;20025;-61
2023/06/30 09:56:22;;;;;;;3.78;2.85;;;;;;;;;;10488803;28;20020;-60
2023/06/30 10:01:23;;;;;;;7.55;2.70;;;;;;;;;;10488140;28;20063;-62
2023/06/30 10:06:27;;;;;;;3.97;2.70;;;;;;;;;;10486808;28;20550;-61
2023/06/30 10:11:28;;;;;;;4.65;3.15;;;;;;;;;;10489769;28;20039;-62
2023/06/30 10:16:29;;;;;;;17.58;3.95;;;;;;;;;;10487206;28;20453;-58
2023/06/30 10:21:30;;;;;;;22.33;3.58;;;;;;;;;;10480683;28;20033;-58
2023/06/30 10:26:33;;;;;;;10.48;3.30;;;;;;;;;;10487983;28;20549;-59
2023/06/30 10:31:35;;;;;;;13.95;3.58;;;;;;;;;;10481407;28;20121;-59
2023/06/30 10:36:36;;;;;;;17.27;3.45;;;;;;;;;;10486598;28;20483;-59
2023/06/30 10:41:48;;;;;;;9.55;3.60;;;;;;;;;;10485385;28;20029;-58
2023/06/30 10:46:55;;;;;;;5.53;2.90;;;;;;;;;;10483168;28;20483;-59
2023/06/30 10:51:58;;;;;;;6.30;3.25;;;;;;;;;;10488784;28;20024;-58
2023/06/30 10:57:14;;;;;;;14.63;2.90;;;;;;;;;;10483421;28;20032;-59
2023/06/30 11:02:17;;;;;;;6.63;2.72;;;;;;;;;;10494402;28;20052;-58
2023/06/30 11:07:29;;;;;;;7.50;3.00;;;;;;;;;;10493663;28;20194;-58
2023/06/30 11:12:53;;;;;;;9.55;3.10;;;;;;;;;;10491130;28;20025;-58
2023/06/30 11:17:56;;;;;;;9.10;2.90;;;;;;;;;;10491935;28;20491;-58
2023/06/30 11:23:05;;;;;;;4.68;2.45;;;;;;;;;;10493686;28;20559;-60
2023/06/30 11:28:08;;;;;;;7.30;3.28;;;;;;;;;;10494094;28;20029;-63
2023/06/30 11:33:09;;;;;;;10.80;3.35;;;;;;;;;;10492244;28;20522;-62
2023/06/30 11:38:09;;;;;;;5.55;2.70;;;;;;;;;;10492508;28;20071;-62
2023/06/30 11:43:10;;;;;;;5.65;2.70;;;;;;;;;;10491991;28;20028;-63
2023/06/30 11:48:12;;;;;;;6.78;2.80;;;;;;;;;;10493499;28;20385;-59
2023/06/30 11:53:12;;;;;;;5.00;2.70;;;;;;;;;;10491041;28;20052;-59
2023/06/30 11:58:18;;;;;;;5.40;2.58;;;;;;;;;;10491933;28;20032;-63
2023/06/30 12:03:19;;;;;;;5.60;2.90;;;;;;;;;;10494775;28;20190;-58
2023/06/30 12:08:28;;;;;;;3.90;2.47;;;;;;;;;;10481790;28;20503;-58
2023/06/30 12:13:29;;;;;;;5.07;2.95;;;;;;;;;;10493548;28;20181;-59
2023/06/30 12:18:36;;;;;;;7.85;2.33;;;;;;;;;;10475412;28;20090;-62
2023/06/30 12:23:41;;;;;;;9.15;3.13;;;;;;;;;;10488287;28;20032;-62
2023/06/30 12:28:42;;;;;;;4.90;2.75;;;;;;;;;;10480521;28;20198;-60
2023/06/30 12:33:55;;;;;;;8.52;3.05;;;;;;;;;;10478439;28;20175;-59
2023/06/30 12:38:56;;;;;;;11.18;2.80;;;;;;;;;;10492000;28;20119;-60
2023/06/30 12:43:58;;;;;;;19.42;3.50;;;;;;;;;;10490797;28;20021;-60
2023/06/30 12:48:58;;;;;;;18.38;4.47;;;;;;;;;;10490171;28;20275;-61
2023/06/30 12:53:59;;;;;;;10.32;2.83;;;;;;;;;;10490411;28;20294;-59
2023/06/30 12:59:00;;;;;;;13.27;3.13;;;;;;;;;;10489608;28;20028;-63
2023/06/30 13:04:01;;;;;;;12.38;3.00;;;;;;;;;;10491593;28;20032;-61
2023/06/30 13:09:02;;;;;;;6.78;2.72;;;;;;;;;;10488460;28;20422;-65
2023/06/30 13:14:03;;;;;;;6.00;2.95;;;;;;;;;;10490855;28;20382;-63
2023/06/30 13:19:04;;;;;;;5.18;2.55;;;;;;;;;;10489387;28;20040;-65
2023/06/30 13:24:05;;;;;;;13.25;2.80;;;;;;;;;;10485967;28;20028;-62
2023/06/30 13:29:06;;;;;;;6.55;2.50;;;;;;;;;;10490680;28;20059;-64
2023/06/30 13:34:06;;;;;;;5.55;2.28;;;;;;;;;;10486894;28;20147;-64
2023/06/30 13:39:07;;;;;;;11.70;2.58;;;;;;;;;;10491135;28;20032;-64
2023/06/30 13:44:09;;;;;;;9.27;2.88;;;;;;;;;;10489614;28;20365;-61
2023/06/30 13:49:09;;;;;;;6.32;2.33;;;;;;;;;;10488382;28;20024;-65
2023/06/30 13:54:10;;;;;;;8.02;2.90;;;;;;;;;;10485085;28;20033;-63
2023/06/30 13:59:11;;;;;;;6.93;2.50;;;;;;;;;;10482852;28;20097;-63
2023/06/30 14:04:11;;;;;;;6.63;2.55;;;;;;;;;;10476547;28;20024;-63
2023/06/30 14:09:12;;;;;;;4.43;2.33;;;;;;;;;;10480801;28;20028;-63
2023/06/30 14:14:13;;;;;;;5.15;2.70;;;;;;;;;;10485284;28;20017;-63
2023/06/30 14:19:13;;;;;;;8.90;2.53;;;;;;;;;;10470048;28;20576;-62
2023/06/30 14:24:14;;;;;;;8.82;2.72;;;;;;;;;;10473449;28;20028;-63
2023/06/30 14:29:15;;;;;;;7.20;2.55;;;;;;;;;;10483980;28;20248;-62
2023/06/30 14:34:15;;;;;;;4.18;2.25;;;;;;;;;;10494509;28;20070;-58
2023/06/30 14:39:19;;;;;;;4.72;2.47;;;;;;;;;;10490859;28;20029;-58
2023/06/30 14:44:21;;;;;;;5.05;2.72;;;;;;;;;;10493066;28;20068;-58
2023/06/30 14:49:21;;;;;;;8.90;2.00;;;;;;;;;;10483204;28;20484;-58
2023/06/30 14:54:22;;;;;;;7.28;2.58;;;;;;;;;;10492530;28;20033;-59
2023/06/30 14:59:22;;;;;;;4.70;2.00;;;;;;;;;;10495343;28;20028;-60
2023/06/30 15:04:23;;;;;;;5.47;2.05;;;;;;;;;;10494844;28;20035;-59
2023/06/30 15:09:23;;;;;;;6.63;2.13;;;;;;;;;;10493169;28;20063;-61
2023/06/30 15:14:26;;;;;;;3.72;1.90;;;;;;;;;;10491957;28;20047;-60
2023/06/30 15:19:27;;;;;;;4.22;2.00;;;;;;;;;;10494581;28;20032;-62
2023/06/30 15:24:27;;;;;;;4.05;2.05;;;;;;;;;;10494034;28;20052;-63
2023/06/30 15:29:28;;;;;;;7.03;2.05;;;;;;;;;;10491570;28;20426;-60
2023/06/30 15:34:28;;;;;;;6.22;2.05;;;;;;;;;;10494861;28;20053;-61
2023/06/30 15:39:29;;;;;;;4.35;2.00;;;;;;;;;;10496036;28;20055;-61
2023/06/30 15:44:30;;;;;;;3.03;2.08;;;;;;;;;;10494129;28;20147;-60
2023/06/30 15:49:30;;;;;;;3.08;1.77;;;;;;;;;;10485985;28;20036;-63
2023/06/30 15:54:31;;;;;;;3.72;1.90;;;;;;;;;;10479076;28;20035;-63
2023/06/30 15:59:31;;;;;;;5.55;2.03;;;;;;;;;;10492868;28;20042;-63
2023/06/30 16:04:32;;;;;;;3.92;1.80;;;;;;;;;;10492419;28;20473;-62
2023/06/30 16:09:32;;;;;;;3.22;1.83;;;;;;;;;;10490399;28;20078;-61
2023/06/30 16:14:33;;;;;;;3.85;1.80;;;;;;;;;;10489887;28;20029;-62
2023/06/30 16:19:34;;;;;;;1.85;1.63;;;;;;;;;;10492372;28;20032;-60
2023/06/30 16:24:34;;;;;;;1.63;1.50;;;;;;;;;;10492435;28;20024;-59
2023/06/30 16:29:35;;;;;;;2.85;1.65;;;;;;;;;;10492637;28;20051;-59
2023/06/30 16:34:36;;;;;;;2.95;1.90;;;;;;;;;;10494213;28;20045;-59
2023/06/30 16:39:37;;;;;;;3.22;1.80;;;;;;;;;;10490728;28;20036;-61
2023/06/30 16:44:37;;;;;;;3.50;1.80;;;;;;;;;;10489266;28;20032;-61
2023/06/30 16:49:38;;;;;;;3.92;2.03;;;;;;;;;;10476286;28;20021;-60
2023/06/30 16:54:38;;;;;;;3.38;2.08;;;;;;;;;;10478208;28;20017;-59
2023/06/30 16:59:39;;;;;;;4.18;2.10;;;;;;;;;;10486140;28;20476;-60
2023/06/30 17:04:39;;;;;;;8.90;2.10;;;;;;;;;;10490079;28;20036;-60
2023/06/30 17:09:40;;;;;;;3.40;2.20;;;;;;;;;;10490590;28;20029;-62
2023/06/30 17:14:41;;;;;;;2.42;1.63;;;;;;;;;;10490032;28;20020;-62
2023/06/30 17:19:41;;;;;;;9.75;2.17;;;;;;;;;;10490950;28;20047;-61
2023/06/30 17:24:42;;;;;;;4.32;2.13;;;;;;;;;;10485773;28;20047;-59
2023/06/30 17:29:45;;;;;;;2.42;1.85;;;;;;;;;;10487904;28;20480;-62
2023/06/30 17:34:45;;;;;;;3.47;2.03;;;;;;;;;;10484436;28;20134;-61
2023/06/30 17:39:46;;;;;;;2.53;2.17;;;;;;;;;;10478174;28;20036;-60
2023/06/30 17:44:47;;;;;;;4.57;2.00;;;;;;;;;;10486396;28;20028;-63
2023/06/30 17:49:47;;;;;;;3.47;2.03;;;;;;;;;;10484094;28;20024;-62
2023/06/30 17:54:48;;;;;;;2.95;1.95;;;;;;;;;;10489483;28;20027;-63
2023/06/30 17:59:49;;;;;;;2.83;2.10;;;;;;;;;;10487407;28;20025;-62
2023/06/30 18:04:50;;;;;;;2.78;2.20;;;;;;;;;;10489229;28;20023;-63
2023/06/30 18:09:50;;;;;;;3.97;2.70;;;;;;;;;;10489102;28;20016;-63
2023/06/30 18:14:51;;;;;;;5.65;2.30;;;;;;;;;;10489358;28;20476;-63
2023/06/30 18:19:52;;;;;;;2.92;2.25;;;;;;;;;;10487849;28;20516;-63
2023/06/30 18:24:52;;;;;;;3.75;2.20;;;;;;;;;;10488569;28;20495;-64
2023/06/30 18:29:53;;;;;;;4.47;2.80;;;;;;;;;;10485778;28;20031;-63
2023/06/30 18:34:53;;;;;;;5.25;2.67;;;;;;;;;;10490791;28;20086;-63
2023/06/30 18:39:54;;;;;;;3.72;2.30;;;;;;;;;;10477366;28;20455;-63
2023/06/30 18:44:56;;;;;;;3.42;2.30;;;;;;;;;;10486398;28;20646;-63
2023/06/30 18:49:56;;;;;;;4.18;2.33;;;;;;;;;;10477629;28;20317;-64
2023/06/30 18:54:58;;;;;;;8.68;2.60;;;;;;;;;;10487586;28;20230;-61
2023/06/30 18:59:59;;;;;;;5.72;2.72;;;;;;;;;;10484839;28;20029;-60
2023/06/30 19:04:59;;;;;;;5.80;2.50;;;;;;;;;;10481240;28;20025;-61
2023/06/30 19:10:00;;;;;;;3.13;2.22;;;;;;;;;;10488119;28;20104;-61
2023/06/30 19:15:03;;;;;;;4.18;2.50;;;;;;;;;;10486626;28;20082;-61
2023/06/30 19:20:04;;;;;;;4.05;2.30;;;;;;;;;;10496184;28;20027;-61
2023/06/30 19:25:05;;;;;;;5.80;2.60;;;;;;;;;;10493389;28;20372;-60
2023/06/30 19:30:06;;;;;;;4.72;2.58;;;;;;;;;;10490186;28;20028;-59
2023/06/30 19:35:07;;;;;;;6.32;2.58;;;;;;;;;;10492102;28;20045;-61
2023/06/30 19:40:08;;;;;;;4.82;2.70;;;;;;;;;;10487212;28;20040;-60
2023/06/30 19:45:09;;;;;;;3.63;2.35;;;;;;;;;;10492287;28;20111;-61
2023/06/30 19:50:10;;;;;;;4.43;2.97;;;;;;;;;;10489574;28;20021;-61
2023/06/30 19:55:11;;;;;;;7.13;3.70;;;;;;;;;;10492538;28;20036;-58
2023/06/30 20:00:12;;;;;;;9.80;4.10;;;;;;;;;;10490213;28;20035;-58
2023/06/30 20:05:12;;;;;;;10.20;3.63;;;;;;;;;;10487167;28;20558;-59
2023/06/30 20:10:13;;;;;;;9.60;4.50;;;;;;;;;;10492334;28;20166;-59
2023/06/30 20:15:14;;;;;;;7.95;3.72;;;;;;;;;;10489935;28;20031;-59
2023/06/30 20:20:14;;;;;;;9.05;3.65;;;;;;;;;;10490484;28;20036;-59
2023/06/30 20:25:18;;;;;;;7.65;4.00;;;;;;;;;;10488950;28;20377;-59
2023/06/30 20:30:18;;;;;;;4.18;3.50;;;;;;;;;;10491378;28;20052;-59
2023/06/30 20:35:19;;;;;;;6.72;4.00;;;;;;;;;;10492408;28;20056;-59
2023/06/30 20:40:19;;;;;;;6.80;3.85;;;;;;;;;;10486750;28;20271;-59
2023/06/30 20:45:20;;;;;;;4.10;3.22;;;;;;;;;;10479138;28;20025;-59
2023/06/30 20:50:21;;;;;;;7.00;3.17;;;;;;;;;;10454969;28;20025;-59
2023/06/30 20:55:21;;;;;;;6.43;3.50;;;;;;;;;;10487654;28;20024;-59
2023/06/30 21:00:22;;;;;;;6.15;3.38;;;;;;;;;;10490579;28;20096;-58
2023/06/30 21:05:22;;;;;;;4.18;3.45;;;;;;;;;;10490118;28;20051;-59
2023/06/30 21:10:23;;;;;;;9.07;3.45;;;;;;;;;;10501798;28;20029;-58
2023/06/30 21:15:24;;;;;;;7.07;3.78;;;;;;;;;;10483030;28;20033;-60
2023/06/30 21:20:24;;;;;;;5.00;4.03;;;;;;;;;;10482138;28;20040;-59
2023/06/30 21:25:25;;;;;;;4.13;3.60;;;;;;;;;;10488960;28;20024;-60
2023/06/30 21:30:25;;;;;;;5.20;2.90;;;;;;;;;;10476191;28;20037;-59
2023/06/30 21:35:26;;;;;;;7.07;2.80;;;;;;;;;;10488144;28;20484;-60
2023/06/30 21:40:27;;;;;;;4.15;3.03;;;;;;;;;;10492793;28;20028;-60
2023/06/30 21:45:27;;;;;;;7.20;3.10;;;;;;;;;;10491218;28;20039;-59
2023/06/30 21:50:28;;;;;;;10.70;2.78;;;;;;;;;;10492695;28;20025;-58
2023/06/30 21:55:28;;;;;;;6.68;2.80;;;;;;;;;;10487507;28;20039;-58
2023/06/30 22:00:29;;;;;;;7.35;2.88;;;;;;;;;;10487818;28;20028;-59
2023/06/30 22:05:29;;;;;;;9.23;3.30;;;;;;;;;;10487341;28;20035;-58
2023/06/30 22:10:30;;;;;;;4.25;3.10;;;;;;;;;;10483151;28;20028;-58
2023/06/30 22:15:30;;;;;;;4.38;2.95;;;;;;;;;;10488928;28;20290;-58
2023/06/30 22:20:31;;;;;;;4.22;2.70;;;;;;;;;;10488409;28;20024;-59
2023/06/30 22:25:32;;;;;;;5.38;2.95;;;;;;;;;;10480782;28;20017;-60
2023/06/30 22:30:32;;;;;;;3.70;2.58;;;;;;;;;;10488353;28;20029;-60
2023/06/30 22:35:33;;;;;;;4.15;3.17;;;;;;;;;;10485906;28;20041;-60
2023/06/30 22:40:34;;;;;;;4.30;2.75;;;;;;;;;;10488123;28;20186;-60
2023/06/30 22:45:35;;;;;;;3.83;2.65;;;;;;;;;;10487846;28;20036;-61
2023/06/30 22:50:35;;;;;;;7.22;3.05;;;;;;;;;;10487618;28;20036;-60
2023/06/30 22:55:36;;;;;;;3.85;2.42;;;;;;;;;;10495024;28;20035;-58
2023/06/30 23:00:36;;;;;;;10.65;2.70;;;;;;;;;;10494448;28;20028;-58
2023/06/30 23:05:37;;;;;;;6.93;2.75;;;;;;;;;;10495544;28;20024;-59
2023/06/30 23:10:37;;;;;;;6.13;3.22;;;;;;;;;;10494506;28;20024;-59
2023/06/30 23:15:38;;;;;;;4.22;3.38;;;;;;;;;;10493188;28;20037;-59
2023/06/30 23:20:39;;;;;;;4.32;2.90;;;;;;;;;;10493049;28;20146;-58
2023/06/30 23:25:40;;;;;;;4.03;2.75;;;;;;;;;;10497885;28;20032;-58
2023/06/30 23:30:42;;;;;;;3.67;3.38;;;;;;;;;;10498767;28;20039;-59
2023/06/30 23:35:43;;;;;;;3.15;2.72;;;;;;;;;;10494860;28;20049;-59
2023/06/30 23:40:44;;;;;;;8.10;3.13;;;;;;;;;;10491933;28;20099;-60
2023/06/30 23:45:44;;;;;;;4.10;2.85;;;;;;;;;;10496415;28;20039;-58
2023/06/30 23:50:45;;;;;;;4.45;3.10;;;;;;;;;;10495301;28;20510;-59
2023/06/30 23:55:46;;;;;;;11.95;3.20;;;;;;;;;;10494583;28;20039;-59
